SQ8 weather

CLOSED La Romaine Water Aerodrome
La Romaine, Quebec, Canada

Public forecast

Using degrees Celsius for public forecast. Weather courtesy of forecast.io.

Closest aviation weather report (METAR) to La Romaine Water Aerodrome

Closest report is Natashquan Airport, 42.8 nm (79.3 km) W. Retrieved 2020/01/26 07:38 UTC (4 minutes ago):

CYNA 260738Z AUTO 08005KT 9SM OVC012 M09/M10 A3016 RMK ICG SLP214

Closest aviation forecast (TAF) to La Romaine Water Aerodrome

Closest forecast is Natashquan Airport, 42.8 nm (79.3 km) W. Retrieved 2020/01/26 08:00 UTC (0 seconds ago):

TAF CYNA 260738Z 2608/2620 VRB03KT P6SM OVC012 TEMPO 2608/2618 5SM BR BKN008 PROB40 2608/2618 BKN007 FM261800 14010KT P6SM BKN012 RMK FCST BASED ON AUTO OBS NXT FCST BY 261400Z